createdAt,value
2023-04-30T00:01:22.405Z,10.70
2023-04-30T00:03:49.213Z,10.70
2023-04-30T00:06:16.101Z,10.70
2023-04-30T00:08:42.779Z,10.70
2023-04-30T00:11:09.489Z,10.70
2023-04-30T00:13:36.163Z,10.60
2023-04-30T00:16:02.986Z,10.60
2023-04-30T00:18:29.690Z,10.60
2023-04-30T00:20:56.381Z,10.60
2023-04-30T00:23:23.132Z,10.60
2023-04-30T00:25:49.736Z,10.60
2023-04-30T00:28:16.390Z,10.50
2023-04-30T00:30:43.093Z,10.60
2023-04-30T00:33:09.814Z,10.60
2023-04-30T00:35:36.596Z,10.60
2023-04-30T00:38:03.283Z,10.50
2023-04-30T00:40:30.470Z,10.50
2023-04-30T00:42:57.136Z,10.50
2023-04-30T00:45:23.927Z,10.50
2023-04-30T00:47:50.900Z,10.40
2023-04-30T00:50:17.889Z,10.50
2023-04-30T00:52:45.411Z,10.40
2023-04-30T00:55:12.670Z,10.20
2023-04-30T00:57:40.887Z,10.30
2023-04-30T01:00:11.147Z,10.40
2023-04-30T01:02:38.501Z,10.30
2023-04-30T01:05:06.245Z,10.30
2023-04-30T01:07:34.842Z,10.30
2023-04-30T01:10:02.036Z,10.30
2023-04-30T01:12:36.067Z,10.30
2023-04-30T01:15:20.543Z,10.20
2023-04-30T01:17:51.751Z,10.20
2023-04-30T01:20:19.923Z,10.20
2023-04-30T01:22:54.910Z,10.20
2023-04-30T01:25:41.474Z,10.20
2023-04-30T01:28:16.954Z,10.20
2023-04-30T01:30:44.850Z,9.20
2023-04-30T01:33:11.979Z,10.20
2023-04-30T01:36:10.975Z,10.20
2023-04-30T01:39:00.912Z,10.20
2023-04-30T01:41:31.603Z,10.20
2023-04-30T01:44:21.437Z,10.20
2023-04-30T01:46:58.742Z,10.20
2023-04-30T01:49:44.114Z,10.10
2023-04-30T01:52:20.699Z,10.00
2023-04-30T01:55:10.287Z,10.10
2023-04-30T01:57:41.410Z,10.10
2023-04-30T02:00:11.551Z,10.10
2023-04-30T02:02:38.297Z,10.10
2023-04-30T02:05:05.619Z,10.10
2023-04-30T02:07:50.095Z,10.10
2023-04-30T02:10:18.988Z,10.10
2023-04-30T02:12:45.847Z,10.10
2023-04-30T02:15:12.944Z,10.10
2023-04-30T02:17:39.770Z,10.10
2023-04-30T02:20:07.229Z,10.10
2023-04-30T02:22:33.926Z,10.10
2023-04-30T02:25:00.572Z,10.10
2023-04-30T02:27:30.127Z,10.10
2023-04-30T02:29:56.993Z,10.70
2023-04-30T02:32:23.839Z,10.10
2023-04-30T02:34:50.611Z,10.10
2023-04-30T02:37:17.358Z,10.10
2023-04-30T02:39:44.058Z,12.30
2023-04-30T02:42:11.147Z,10.00
2023-04-30T02:44:37.846Z,10.00
2023-04-30T02:47:04.619Z,10.00
2023-04-30T02:49:31.553Z,10.00
2023-04-30T02:51:58.199Z,10.00
2023-04-30T02:54:25.078Z,10.00
2023-04-30T02:56:51.884Z,10.00
2023-04-30T02:59:18.588Z,10.00
2023-04-30T03:01:45.337Z,10.00
2023-04-30T03:04:12.146Z,10.00
2023-04-30T03:06:39.093Z,10.00
2023-04-30T03:09:06.063Z,9.90
2023-04-30T03:11:32.787Z,9.90
2023-04-30T03:13:59.437Z,9.90
2023-04-30T03:16:26.218Z,9.90
2023-04-30T03:18:52.980Z,9.90
2023-04-30T03:21:19.683Z,9.90
2023-04-30T03:23:46.349Z,9.90
2023-04-30T03:26:13.045Z,9.90
2023-04-30T03:28:39.802Z,9.80
2023-04-30T03:31:06.609Z,9.90
2023-04-30T03:33:33.507Z,9.80
2023-04-30T03:36:00.190Z,9.80
2023-04-30T03:38:26.886Z,9.70
2023-04-30T03:40:53.521Z,9.70
2023-04-30T03:43:20.743Z,9.70
2023-04-30T03:45:47.517Z,9.70
2023-04-30T03:48:14.297Z,9.60
2023-04-30T03:50:41.189Z,9.60
2023-04-30T03:53:07.877Z,6.80
2023-04-30T03:55:34.637Z,9.50
2023-04-30T03:58:01.734Z,9.50
2023-04-30T04:00:28.516Z,9.60
2023-04-30T04:02:55.314Z,9.40
2023-04-30T04:05:22.089Z,9.40
2023-04-30T04:07:48.735Z,9.30
2023-04-30T04:10:15.552Z,7.70
2023-04-30T04:12:42.221Z,9.30
2023-04-30T04:15:09.505Z,9.30
2023-04-30T04:17:36.296Z,9.30
2023-04-30T04:20:06.000Z,9.30
2023-04-30T04:22:32.658Z,9.30
2023-04-30T04:24:59.461Z,9.40
2023-04-30T04:27:26.164Z,9.50
2023-04-30T04:29:53.069Z,9.50
2023-04-30T04:32:19.838Z,9.60
2023-04-30T04:34:47.269Z,9.60
2023-04-30T04:37:14.185Z,9.70
2023-04-30T04:39:40.961Z,9.70
2023-04-30T04:42:08.357Z,9.80
2023-04-30T04:44:35.027Z,9.80
2023-04-30T04:47:04.425Z,9.90
2023-04-30T04:49:31.081Z,9.90
2023-04-30T04:51:57.784Z,10.00
2023-04-30T04:54:24.563Z,10.00
2023-04-30T04:56:51.623Z,10.10
2023-04-30T04:59:18.948Z,9.70
2023-04-30T05:01:45.654Z,10.20
2023-04-30T05:04:14.939Z,10.30
2023-04-30T05:06:42.642Z,10.30
2023-04-30T05:09:09.828Z,10.40
2023-04-30T05:11:41.472Z,10.50
2023-04-30T05:14:08.256Z,10.50
2023-04-30T05:16:34.948Z,10.60
2023-04-30T05:19:01.701Z,10.70
2023-04-30T05:21:29.698Z,10.80
2023-04-30T05:23:56.481Z,10.90
2023-04-30T05:26:24.385Z,11.00
2023-04-30T05:28:52.376Z,11.10
2023-04-30T05:31:20.804Z,11.10
2023-04-30T05:33:48.053Z,11.30
2023-04-30T05:36:14.978Z,11.40
2023-04-30T05:38:41.972Z,11.60
2023-04-30T05:41:11.173Z,11.70
2023-04-30T05:43:37.921Z,11.80
2023-04-30T05:46:04.727Z,11.90
2023-04-30T05:48:31.437Z,11.90
2023-04-30T05:50:58.132Z,11.90
2023-04-30T05:53:24.856Z,12.00
2023-04-30T05:55:51.529Z,12.10
2023-04-30T05:58:18.177Z,12.20
2023-04-30T06:00:44.844Z,12.20
2023-04-30T06:03:11.488Z,12.30
2023-04-30T06:05:41.478Z,12.40
2023-04-30T06:08:08.476Z,12.50
2023-04-30T06:10:35.510Z,12.50
2023-04-30T06:13:02.281Z,12.50
2023-04-30T06:15:35.191Z,12.60
2023-04-30T06:18:01.848Z,12.50
2023-04-30T06:20:28.601Z,12.50
2023-04-30T06:22:55.408Z,12.60
2023-04-30T06:25:22.147Z,12.60
2023-04-30T06:27:48.949Z,12.50
2023-04-30T06:30:15.898Z,12.50
2023-04-30T06:32:42.679Z,12.50
2023-04-30T06:35:12.701Z,12.50
2023-04-30T06:37:39.424Z,12.60
2023-04-30T06:40:07.295Z,12.60
2023-04-30T06:42:35.205Z,12.90
2023-04-30T06:45:02.919Z,12.90
2023-04-30T06:47:34.754Z,13.00
2023-04-30T06:50:02.205Z,12.90
2023-04-30T06:52:29.923Z,13.00
2023-04-30T06:54:56.701Z,13.10
2023-04-30T06:57:24.616Z,13.20
2023-04-30T06:59:51.653Z,13.30
2023-04-30T07:02:21.230Z,13.40
2023-04-30T07:04:49.427Z,13.40
2023-04-30T07:07:16.189Z,12.70
2023-04-30T07:09:42.851Z,13.60
2023-04-30T07:12:11.159Z,13.80
2023-04-30T07:14:37.822Z,13.90
2023-04-30T07:17:04.615Z,14.10
2023-04-30T07:19:32.475Z,14.10
2023-04-30T07:21:59.180Z,14.10
2023-04-30T07:24:26.225Z,14.20
2023-04-30T07:26:52.994Z,14.40
2023-04-30T07:29:19.708Z,14.50
2023-04-30T07:31:48.758Z,14.50
2023-04-30T07:34:15.440Z,14.50
2023-04-30T07:36:42.105Z,14.60
2023-04-30T07:39:08.747Z,18.10
2023-04-30T07:41:35.498Z,14.70
2023-04-30T07:44:02.347Z,14.80
2023-04-30T07:46:29.054Z,15.00
2023-04-30T07:48:55.801Z,15.10
2023-04-30T07:51:22.611Z,15.10
2023-04-30T07:53:49.293Z,15.00
2023-04-30T07:56:15.936Z,14.90
2023-04-30T07:58:42.803Z,14.90
2023-04-30T08:01:09.533Z,15.00
2023-04-30T08:03:36.565Z,15.00
2023-04-30T08:06:05.284Z,15.10
2023-04-30T08:08:32.010Z,15.10
2023-04-30T08:10:58.657Z,15.10
2023-04-30T08:13:25.305Z,15.20
2023-04-30T08:15:51.971Z,15.30
2023-04-30T08:18:18.742Z,15.50
2023-04-30T08:20:45.487Z,15.50
2023-04-30T08:23:12.272Z,15.70
2023-04-30T08:25:39.027Z,15.60
2023-04-30T08:28:06.888Z,15.80
2023-04-30T08:30:33.548Z,15.80
2023-04-30T08:33:00.523Z,15.90
2023-04-30T08:35:29.575Z,16.00
2023-04-30T08:37:56.314Z,12.30
2023-04-30T08:40:33.744Z,15.70
2023-04-30T08:43:11.549Z,16.20
2023-04-30T08:45:39.197Z,16.40
2023-04-30T08:48:11.091Z,17.00
2023-04-30T08:50:38.024Z,17.20
2023-04-30T08:53:04.939Z,17.30
2023-04-30T08:55:34.576Z,17.40
2023-04-30T08:58:01.508Z,17.40
2023-04-30T09:00:28.451Z,17.50
2023-04-30T09:02:55.438Z,17.50
2023-04-30T09:05:22.116Z,17.90
2023-04-30T09:08:01.499Z,18.10
2023-04-30T09:10:32.671Z,18.30
2023-04-30T09:13:01.293Z,18.10
2023-04-30T09:15:28.694Z,17.80
2023-04-30T09:18:14.564Z,17.40
2023-04-30T09:20:58.896Z,17.30
2023-04-30T09:23:25.821Z,17.30
2023-04-30T09:25:52.520Z,17.20
2023-04-30T09:28:23.613Z,17.50
2023-04-30T09:30:51.061Z,17.50
2023-04-30T09:33:18.594Z,18.30
2023-04-30T09:35:45.534Z,19.20
2023-04-30T09:38:32.769Z,19.50
2023-04-30T09:41:01.050Z,18.00
2023-04-30T09:43:29.056Z,19.70
2023-04-30T09:45:58.957Z,20.20
2023-04-30T09:48:28.367Z,21.10
2023-04-30T09:50:55.671Z,22.30
2023-04-30T09:53:23.802Z,22.50
2023-04-30T09:55:51.780Z,23.40
2023-04-30T09:58:19.661Z,24.30
2023-04-30T10:00:49.431Z,25.50
2023-04-30T10:03:16.920Z,26.30
2023-04-30T10:05:47.587Z,26.50
2023-04-30T10:08:26.732Z,26.00
2023-04-30T10:11:01.115Z,25.20
2023-04-30T10:13:35.879Z,23.80
2023-04-30T10:16:11.800Z,23.70
2023-04-30T10:18:40.984Z,23.50
2023-04-30T10:21:12.683Z,23.90
2023-04-30T10:23:41.957Z,24.20
2023-04-30T10:26:11.152Z,24.20
2023-04-30T10:28:38.487Z,24.80
2023-04-30T10:31:07.111Z,25.30
2023-04-30T10:33:53.712Z,25.60
2023-04-30T10:36:48.513Z,24.80
2023-04-30T10:39:24.025Z,25.30
2023-04-30T10:41:50.949Z,25.40
2023-04-30T10:44:22.725Z,25.50
2023-04-30T10:46:49.532Z,25.70
2023-04-30T10:49:24.556Z,25.60
2023-04-30T10:51:52.064Z,25.70
2023-04-30T10:54:26.931Z,25.20
2023-04-30T10:56:56.524Z,26.30
2023-04-30T10:59:24.320Z,28.00
2023-04-30T11:01:59.978Z,28.40
2023-04-30T11:04:27.423Z,28.30
2023-04-30T11:06:54.124Z,27.90
2023-04-30T11:09:36.365Z,27.20
2023-04-30T11:12:04.798Z,26.50
2023-04-30T11:14:34.087Z,25.60
2023-04-30T11:17:02.377Z,25.10
2023-04-30T11:19:30.064Z,25.90
2023-04-30T11:22:04.150Z,27.30
2023-04-30T11:24:50.834Z,29.10
2023-04-30T11:27:23.393Z,30.60
2023-04-30T11:29:51.745Z,32.10
2023-04-30T11:32:21.339Z,31.60
2023-04-30T11:34:49.060Z,31.30
2023-04-30T11:37:35.703Z,30.50
2023-04-30T11:40:06.472Z,31.00
2023-04-30T11:42:36.533Z,31.80
2023-04-30T11:45:06.716Z,32.30
2023-04-30T11:47:51.718Z,32.80
2023-04-30T11:50:27.016Z,32.80
2023-04-30T11:52:54.454Z,31.90
2023-04-30T11:55:24.960Z,30.70
2023-04-30T11:57:54.529Z,29.50
2023-04-30T12:00:25.597Z,28.00
2023-04-30T12:02:52.522Z,26.50
2023-04-30T12:05:21.603Z,25.50
2023-04-30T12:07:50.171Z,27.80
2023-04-30T12:10:18.979Z,27.80
2023-04-30T12:12:46.929Z,27.50
2023-04-30T12:15:17.271Z,27.10
2023-04-30T12:17:45.950Z,28.50
2023-04-30T12:20:15.072Z,28.70
2023-04-30T12:22:43.717Z,29.90
2023-04-30T12:25:18.548Z,29.70
2023-04-30T12:27:47.678Z,29.30
2023-04-30T12:30:14.484Z,29.00
2023-04-30T12:32:46.068Z,29.00
2023-04-30T12:35:16.154Z,30.20
2023-04-30T12:37:46.159Z,30.80
2023-04-30T12:40:14.096Z,30.90
2023-04-30T12:42:43.667Z,30.30
2023-04-30T12:45:11.636Z,29.60
2023-04-30T12:47:40.951Z,28.60
2023-04-30T12:50:10.993Z,28.30
2023-04-30T12:52:38.032Z,26.80
2023-04-30T12:55:21.493Z,25.80
2023-04-30T12:58:08.555Z,27.70
2023-04-30T13:00:51.426Z,29.60
2023-04-30T13:03:21.724Z,31.00
2023-04-30T13:05:51.703Z,33.20
2023-04-30T13:08:20.619Z,31.90
2023-04-30T13:10:48.537Z,30.70
2023-04-30T13:13:17.492Z,30.20
2023-04-30T13:15:44.590Z,29.80
2023-04-30T13:18:12.069Z,28.80
2023-04-30T13:20:39.193Z,29.00
2023-04-30T13:23:06.643Z,30.60
2023-04-30T13:25:34.699Z,31.80
2023-04-30T13:28:01.358Z,33.30
2023-04-30T13:30:28.658Z,35.20
2023-04-30T13:32:55.536Z,36.00
2023-04-30T13:35:22.468Z,35.50
2023-04-30T13:37:49.622Z,32.90
2023-04-30T13:40:16.361Z,32.50
2023-04-30T13:42:43.158Z,30.00
2023-04-30T13:45:10.253Z,27.50
2023-04-30T13:47:37.156Z,27.00
2023-04-30T13:50:05.052Z,27.20
2023-04-30T13:52:31.973Z,28.50
2023-04-30T13:54:58.799Z,30.60
2023-04-30T13:57:25.555Z,32.30
2023-04-30T13:59:52.806Z,33.00
2023-04-30T14:02:19.686Z,32.70
2023-04-30T14:04:58.158Z,32.20
2023-04-30T14:07:29.369Z,34.00
2023-04-30T14:09:56.359Z,33.90
2023-04-30T14:12:24.496Z,34.20
2023-04-30T14:14:51.252Z,33.50
2023-04-30T14:17:17.968Z,32.40
2023-04-30T14:22:15.073Z,28.10
2023-04-30T14:37:01.588Z,30.50
2023-04-30T14:56:44.264Z,24.30
2023-04-30T14:59:11.899Z,23.90
2023-04-30T15:01:38.682Z,24.70
2023-04-30T15:04:06.018Z,26.20
2023-04-30T15:06:33.213Z,27.00
2023-04-30T15:09:00.162Z,28.10
2023-04-30T15:11:26.911Z,28.50
2023-04-30T15:13:55.182Z,29.20
2023-04-30T15:16:22.258Z,29.30
2023-04-30T15:18:49.031Z,29.80
2023-04-30T15:21:15.728Z,29.40
2023-04-30T15:23:42.442Z,28.60
2023-04-30T15:26:10.143Z,28.30
2023-04-30T15:28:36.984Z,27.90
2023-04-30T15:31:04.499Z,27.70
2023-04-30T15:36:06.297Z,26.40
2023-04-30T15:38:33.116Z,26.30
2023-04-30T15:41:01.851Z,26.40
2023-04-30T15:43:29.864Z,27.10
2023-04-30T15:45:57.097Z,28.10
2023-04-30T15:48:23.882Z,29.10
2023-04-30T15:50:50.566Z,29.10
2023-04-30T15:53:17.329Z,29.20
2023-04-30T15:55:46.460Z,28.90
2023-04-30T15:58:13.235Z,28.30
2023-04-30T16:00:40.055Z,28.20
2023-04-30T16:03:07.197Z,28.00
2023-04-30T16:05:38.631Z,27.60
2023-04-30T16:08:07.871Z,26.80
2023-04-30T16:10:34.574Z,26.80
2023-04-30T16:13:01.182Z,26.30
2023-04-30T16:15:32.153Z,25.70
2023-04-30T16:17:58.913Z,24.30
2023-04-30T16:20:27.309Z,24.10
2023-04-30T16:22:55.068Z,23.20
2023-04-30T16:25:22.516Z,22.50
2023-04-30T16:27:49.751Z,21.10
2023-04-30T16:30:16.501Z,21.00
2023-04-30T16:32:44.220Z,20.60
2023-04-30T16:35:10.971Z,20.30
2023-04-30T16:37:37.638Z,19.80
2023-04-30T16:40:06.294Z,19.70
2023-04-30T16:42:33.787Z,19.50
2023-04-30T16:45:01.497Z,19.40
2023-04-30T16:47:31.260Z,19.20
2023-04-30T16:49:58.645Z,19.20
2023-04-30T16:52:25.682Z,19.20
2023-04-30T16:54:52.384Z,19.20
2023-04-30T16:57:19.122Z,19.20
2023-04-30T16:59:46.792Z,19.20
2023-04-30T17:02:13.524Z,19.20
2023-04-30T17:04:40.267Z,19.10
2023-04-30T17:07:07.339Z,18.80
2023-04-30T17:09:34.162Z,18.70
2023-04-30T17:12:00.662Z,18.50
2023-04-30T17:14:27.480Z,18.30
2023-04-30T17:16:54.277Z,18.00
2023-04-30T17:19:20.943Z,18.00
2023-04-30T17:21:47.572Z,18.00
2023-04-30T17:24:14.286Z,17.90
2023-04-30T17:26:41.416Z,17.90
2023-04-30T17:29:08.110Z,17.80
2023-04-30T17:31:35.423Z,17.80
2023-04-30T17:34:02.375Z,17.70
2023-04-30T17:36:30.192Z,17.60
2023-04-30T17:38:57.030Z,17.40
2023-04-30T17:41:23.953Z,17.40
2023-04-30T17:43:51.684Z,17.20
2023-04-30T17:46:18.573Z,17.10
2023-04-30T17:48:45.241Z,16.90
2023-04-30T17:51:12.055Z,16.80
2023-04-30T17:53:38.739Z,16.70
2023-04-30T17:56:05.831Z,16.60
2023-04-30T17:58:32.861Z,16.30
2023-04-30T18:01:01.518Z,16.30
2023-04-30T18:03:28.652Z,16.20
2023-04-30T18:05:55.562Z,16.10
2023-04-30T18:08:22.417Z,15.90
2023-04-30T18:10:49.397Z,15.80
2023-04-30T18:13:16.204Z,15.60
2023-04-30T18:15:42.893Z,15.50
2023-04-30T18:18:09.951Z,15.20
2023-04-30T18:20:37.024Z,15.20
2023-04-30T18:23:05.522Z,15.10
2023-04-30T18:25:34.273Z,15.10
2023-04-30T18:28:01.328Z,14.90
2023-04-30T18:30:28.103Z,14.90
2023-04-30T18:32:54.863Z,14.70
2023-04-30T18:35:22.170Z,14.60
2023-04-30T18:37:49.628Z,14.40
2023-04-30T18:40:16.477Z,14.40
2023-04-30T18:42:43.219Z,14.20
2023-04-30T18:45:11.356Z,14.10
2023-04-30T18:47:38.245Z,13.80
2023-04-30T18:50:07.033Z,13.80
2023-04-30T18:52:34.038Z,13.50
2023-04-30T18:55:00.855Z,16.10
2023-04-30T18:59:55.394Z,13.20
2023-04-30T19:02:22.274Z,13.10
2023-04-30T19:04:50.295Z,13.00
2023-04-30T19:07:17.048Z,12.90
2023-04-30T19:09:45.195Z,12.80
2023-04-30T19:12:12.413Z,12.70
2023-04-30T19:14:39.120Z,12.50
2023-04-30T19:17:05.920Z,12.50
2023-04-30T19:19:32.882Z,12.40
2023-04-30T19:21:59.554Z,12.30
2023-04-30T19:24:26.249Z,12.20
2023-04-30T19:26:52.961Z,12.10
2023-04-30T19:29:19.621Z,12.10
2023-04-30T19:31:46.518Z,12.00
2023-04-30T19:34:13.883Z,11.90
2023-04-30T19:36:43.847Z,11.80
2023-04-30T19:39:11.813Z,11.70
2023-04-30T19:41:39.176Z,11.70
2023-04-30T19:44:06.304Z,11.60
2023-04-30T19:46:32.992Z,11.50
2023-04-30T19:48:59.668Z,11.40
2023-04-30T19:51:26.389Z,11.30
2023-04-30T19:53:53.130Z,11.30
2023-04-30T19:56:19.990Z,11.20
2023-04-30T19:58:47.487Z,11.20
2023-04-30T20:01:14.680Z,11.10
2023-04-30T20:03:42.491Z,11.00
2023-04-30T20:06:09.888Z,11.00
2023-04-30T20:08:37.425Z,11.00
2023-04-30T20:11:04.217Z,13.10
2023-04-30T20:13:31.010Z,10.90
2023-04-30T20:15:58.120Z,10.90
2023-04-30T20:18:24.931Z,10.80
2023-04-30T20:20:52.222Z,10.70
2023-04-30T20:23:20.240Z,10.60
2023-04-30T20:25:46.971Z,10.60
2023-04-30T20:28:14.784Z,10.40
2023-04-30T20:30:42.810Z,10.40
2023-04-30T20:33:10.781Z,10.30
2023-04-30T20:35:40.671Z,10.30
2023-04-30T20:38:08.065Z,10.20
2023-04-30T20:40:34.881Z,10.40
2023-04-30T20:43:01.644Z,10.10
2023-04-30T20:45:28.536Z,10.00
2023-04-30T20:47:55.658Z,10.10
2023-04-30T20:50:22.452Z,10.00
2023-04-30T20:52:49.185Z,9.90
2023-04-30T20:55:16.053Z,9.90
2023-04-30T20:57:42.832Z,9.70
2023-04-30T21:00:10.042Z,9.70
2023-04-30T21:02:36.873Z,9.70
2023-04-30T21:05:05.964Z,9.70
2023-04-30T21:07:34.417Z,9.60
2023-04-30T21:10:01.977Z,9.60
2023-04-30T21:12:29.609Z,9.50
2023-04-30T21:14:57.136Z,9.40
2023-04-30T21:17:23.913Z,9.30
2023-04-30T21:19:50.569Z,9.30
2023-04-30T21:22:17.341Z,9.20
2023-04-30T21:24:44.406Z,9.20
2023-04-30T21:27:11.306Z,8.40
2023-04-30T21:29:41.645Z,9.20
2023-04-30T21:32:08.381Z,9.30
2023-04-30T21:34:35.067Z,9.30
2023-04-30T21:37:01.835Z,9.30
2023-04-30T21:39:30.577Z,9.20
2023-04-30T21:41:57.837Z,9.20
2023-04-30T21:44:25.268Z,9.20
2023-04-30T21:46:52.190Z,9.00
2023-04-30T21:49:19.026Z,9.10
2023-04-30T21:51:45.684Z,9.10
2023-04-30T21:54:12.629Z,9.10
2023-04-30T21:56:40.148Z,9.10
2023-04-30T21:59:07.125Z,9.10
2023-04-30T22:01:33.851Z,9.00
2023-04-30T22:04:00.676Z,9.00
2023-04-30T22:06:28.390Z,9.00
2023-04-30T22:08:55.315Z,9.00
2023-04-30T22:11:22.110Z,9.00
2023-04-30T22:16:17.121Z,8.90
2023-04-30T22:18:44.073Z,8.80
2023-04-30T22:21:10.682Z,8.80
2023-04-30T22:23:37.374Z,8.70
2023-04-30T22:26:09.556Z,8.60
2023-04-30T22:28:37.407Z,8.60
2023-04-30T22:31:04.733Z,8.60
2023-04-30T22:33:36.146Z,8.50
2023-04-30T22:36:06.417Z,8.40
2023-04-30T22:38:33.687Z,8.40
2023-04-30T22:41:00.707Z,8.40
2023-04-30T22:43:30.325Z,8.30
2023-04-30T22:45:58.717Z,8.40
2023-04-30T22:48:26.879Z,8.40
2023-04-30T22:50:53.922Z,8.30
2023-04-30T22:53:20.849Z,8.30
2023-04-30T22:55:47.914Z,8.30
2023-04-30T22:58:14.667Z,8.20
2023-04-30T23:00:41.687Z,8.20
2023-04-30T23:03:08.529Z,8.50
2023-04-30T23:05:35.432Z,8.10
2023-04-30T23:08:02.216Z,8.10
2023-04-30T23:10:28.898Z,8.00
2023-04-30T23:12:56.548Z,8.00
2023-04-30T23:15:23.424Z,8.00
2023-04-30T23:17:51.466Z,8.00
2023-04-30T23:20:18.716Z,7.90
2023-04-30T23:22:45.564Z,8.00
2023-04-30T23:25:12.686Z,8.00
2023-04-30T23:27:39.433Z,7.80
2023-04-30T23:30:06.939Z,10.50
2023-04-30T23:32:33.615Z,7.90
2023-04-30T23:35:03.320Z,7.80
2023-04-30T23:37:32.080Z,7.80
2023-04-30T23:39:59.595Z,7.80
2023-04-30T23:42:26.505Z,7.70
2023-04-30T23:44:53.306Z,7.70
2023-04-30T23:47:19.954Z,7.70
2023-04-30T23:49:46.730Z,7.70
2023-04-30T23:52:14.359Z,7.60
2023-04-30T23:54:41.131Z,7.50
2023-04-30T23:57:07.884Z,7.50
2023-04-30T23:59:34.587Z,7.40
